Time;durP1;ratioP1;P1;durP2;ratioP2;P2;SDS_P1;SDS_P2;PMS_P1;PMS_P2;Temp;Humidity;BMP_temperature;BMP_pressure;BME280_temperature;BME280_humidity;BME280_pressure;Samples;Min_cycle;Max_cycle;Signal;HPM_P1;HPM_P2
2021/12/17 04:33:33;;;;;;;20.80;15.80;;;;;;;9.50;61.68;100793.84;6852464;29;20216;-87
2021/12/17 04:36:56;;;;;;;24.07;17.63;;;;;;;9.45;61.42;100792.59;6843476;29;20216;-87
2021/12/17 04:40:20;;;;;;;21.80;15.90;;;;;;;9.10;62.26;100768.25;6844382;29;20231;-87
2021/12/17 04:43:56;;;;;;;22.97;16.13;;;;;;;8.78;63.78;100789.31;6890522;23;20260;-85
2021/12/17 05:04:16;;;;;;;26.27;17.33;;;;;;;9.32;62.26;100800.16;6891326;28;20233;-85
2021/12/17 05:29:00;;;;;;;21.83;16.97;;;;;;;9.44;61.97;100780.97;6666961;29;20219;-84
2021/12/17 05:32:21;;;;;;;24.30;16.77;;;;;;;9.34;61.11;100733.56;6718461;29;20213;-85
2021/12/17 05:35:43;;;;;;;24.30;16.90;;;;;;;9.49;61.75;100780.50;6735843;29;20270;-85
2021/12/17 05:39:05;;;;;;;24.53;17.00;;;;;;;9.62;61.05;100781.03;6734215;29;20233;-84
2021/12/17 05:42:28;;;;;;;24.97;17.23;;;;;;;9.70;60.55;100741.53;6733546;29;20206;-86
2021/12/17 05:46:03;;;;;;;19.47;15.50;;;;;;;9.74;61.23;100760.97;6740144;29;20244;-87
2021/12/17 05:49:26;;;;;;;22.87;16.10;;;;;;;10.04;59.62;100776.78;6739168;29;20531;-86
2021/12/17 05:52:49;;;;;;;24.47;17.53;;;;;;;9.32;60.72;100741.78;6740696;29;20209;-86
2021/12/17 05:56:11;;;;;;;25.73;16.77;;;;;;;8.95;62.93;100779.66;6774644;29;20214;-86
2021/12/17 05:59:35;;;;;;;25.63;17.63;;;;;;;9.18;62.28;100755.75;6872022;28;20300;-86
2021/12/17 06:02:57;;;;;;;24.90;17.03;;;;;;;9.41;61.65;100775.03;6923817;28;20237;-86
2021/12/17 06:06:29;;;;;;;22.23;15.90;;;;;;;9.73;60.28;100778.09;6926409;28;20208;-86
2021/12/17 06:09:51;;;;;;;30.23;18.53;;;;;;;8.48;62.19;100710.72;6925242;28;20213;-86
2021/12/17 06:13:13;;;;;;;26.87;18.83;;;;;;;9.01;62.55;100793.34;6924178;28;20421;-86
2021/12/17 06:16:36;;;;;;;30.23;18.27;;;;;;;8.82;61.89;100742.31;6919547;28;20658;-86
2021/12/17 06:19:58;;;;;;;26.73;18.03;;;;;;;9.12;61.53;100742.03;6923682;28;20720;-86
2021/12/17 06:23:19;;;;;;;28.50;18.10;;;;;;;9.26;61.82;100757.69;6921981;28;20229;-84
2021/12/17 06:26:41;;;;;;;23.40;16.60;;;;;;;9.43;61.38;100795.44;6917963;28;20234;-85
2021/12/17 06:30:05;;;;;;;24.23;17.30;;;;;;;9.10;61.26;100735.97;6924231;28;20204;-85
2021/12/17 06:33:28;;;;;;;24.67;16.70;;;;;;;9.23;61.75;100798.38;6920178;28;20238;-84
2021/12/17 06:36:49;;;;;;;30.30;18.47;;;;;;;9.16;61.94;100799.97;6921594;28;20247;-85
2021/12/17 06:40:12;;;;;;;24.53;16.60;;;;;;;8.81;63.78;100810.56;6924082;28;20230;-87
2021/12/17 06:43:42;;;;;;;18.87;13.83;;;;;;;9.35;62.15;100807.94;6928702;28;20242;-87
2021/12/17 06:47:15;;;;;;;18.07;12.67;;;;;;;9.86;61.27;100800.16;6929773;28;20611;-90
2021/12/17 06:54:51;;;;;;;12.17;10.03;;;;;;;9.23;61.04;100785.78;6926759;28;20230;-86
2021/12/17 07:05:58;;;;;;;11.63;9.33;;;;;;;10.19;58.32;100818.34;6927934;28;20258;-86
2021/12/17 07:17:33;;;;;;;13.53;11.00;;;;;;;10.01;58.52;100836.34;6876586;28;20213;-86
2021/12/17 07:29:56;;;;;;;10.33;8.87;;;;;;;10.47;56.83;100841.53;6995764;28;20208;-89
2021/12/17 07:32:48;;;;;;;10.43;8.83;;;;;;;10.16;57.04;100776.38;6991850;28;20213;-90
2021/12/17 07:36:13;;;;;;;15.77;10.27;;;;;;;10.06;56.56;100743.28;6993876;28;20200;-87
2021/12/17 07:39:45;;;;;;;12.47;9.80;;;;;;;10.21;56.47;100746.28;6994954;28;20270;-88
2021/12/17 07:43:13;;;;;;;12.17;10.00;;;;;;;10.52;56.54;100798.78;7011837;28;20225;-87
2021/12/17 07:46:34;;;;;;;11.80;9.50;;;;;;;10.26;56.65;100750.19;6981928;28;20608;-88
2021/12/17 07:49:59;;;;;;;12.50;10.13;;;;;;;10.55;57.30;100833.50;6978415;28;20210;-88
2021/12/17 07:53:21;;;;;;;10.50;8.87;;;;;;;10.40;56.59;100800.84;6978771;28;20217;-87
2021/12/17 07:56:48;;;;;;;13.37;10.30;;;;;;;10.16;56.81;100772.84;6974581;28;20203;-87
2021/12/17 08:00:10;;;;;;;14.00;11.03;;;;;;;10.02;57.77;100832.63;6968527;28;20218;-87
2021/12/17 08:03:32;;;;;;;16.73;11.00;;;;;;;9.79;58.53;100797.19;6959600;28;20228;-86
2021/12/17 08:06:54;;;;;;;13.23;9.90;;;;;;;9.84;58.48;100829.94;6973599;28;20210;-86
2021/12/17 08:10:16;;;;;;;13.00;10.20;;;;;;;9.43;59.37;100816.13;6971347;28;20204;-84
2021/12/17 08:13:42;;;;;;;11.73;9.27;;;;;;;8.83;59.95;100748.53;6971877;28;20241;-86
2021/12/17 08:17:29;;;;;;;11.97;9.17;;;;;;;9.70;58.15;100810.72;6965624;28;20205;-87
2021/12/17 08:28:24;;;;;;;8.63;7.57;;;;;;;10.08;56.79;100835.59;6948144;28;20287;-85
2021/12/17 08:31:47;;;;;;;12.10;9.07;;;;;;;10.45;57.12;100840.88;6944480;28;20217;-84
2021/12/17 08:35:11;;;;;;;14.27;11.80;;;;;;;10.67;56.96;100846.63;6944203;28;20256;-85
2021/12/17 08:38:32;;;;;;;16.80;13.57;;;;;;;10.57;57.00;100805.38;6953289;28;20208;-84
2021/12/17 08:41:55;;;;;;;16.40;12.57;;;;;;;12.54;53.63;100838.19;6925703;28;20206;-87
2021/12/17 08:45:17;;;;;;;15.47;12.60;;;;;;;13.14;49.58;100840.38;6945615;28;20236;-81
2021/12/17 08:48:40;;;;;;;16.57;12.40;;;;;;;12.72;51.05;100833.44;6946524;28;20239;-82
2021/12/17 08:52:01;;;;;;;14.63;11.67;;;;;;;12.44;51.94;100845.59;6946432;28;20291;-82
2021/12/17 08:55:23;;;;;;;13.87;12.13;;;;;;;12.02;52.28;100844.84;6957072;28;20267;-82
2021/12/17 08:58:44;;;;;;;18.50;12.00;;;;;;;11.48;53.58;100837.19;6968581;28;20257;-82
2021/12/17 09:02:06;;;;;;;18.97;13.87;;;;;;;11.53;54.20;100840.25;6960887;28;20231;-81
2021/12/17 09:05:29;;;;;;;25.93;14.27;;;;;;;11.39;54.54;100821.97;6946252;28;20223;-81
2021/12/17 09:08:54;;;;;;;20.10;13.87;;;;;;;11.22;54.89;100826.41;6946054;28;20210;-81
2021/12/17 09:12:16;;;;;;;17.70;13.30;;;;;;;11.19;55.98;100839.38;6953578;28;20261;-82
2021/12/17 09:15:39;;;;;;;17.43;13.93;;;;;;;11.25;55.82;100828.81;6946704;28;20215;-82
2021/12/17 09:19:04;;;;;;;16.93;13.03;;;;;;;11.47;55.13;100841.75;6955986;28;20237;-81
2021/12/17 09:22:27;;;;;;;13.33;10.60;;;;;;;11.29;54.91;100842.81;6957369;28;20230;-81
2021/12/17 09:25:49;;;;;;;11.03;9.50;;;;;;;11.61;54.27;100840.31;6949626;28;20233;-80
2021/12/17 09:29:10;;;;;;;13.00;10.43;;;;;;;12.24;52.65;100825.28;6947705;28;20207;-80
2021/12/17 09:32:33;;;;;;;14.03;10.83;;;;;;;12.42;51.23;100834.09;6968456;28;20209;-83
2021/12/17 09:35:55;;;;;;;11.70;9.20;;;;;;;12.05;52.38;100848.06;6969484;28;20209;-80
2021/12/17 09:39:19;;;;;;;10.83;9.50;;;;;;;12.65;51.07;100843.25;6963254;28;20291;-82
2021/12/17 09:42:42;;;;;;;12.47;8.20;;;;;;;12.66;50.49;100837.69;6947138;28;20254;-84
2021/12/17 09:46:07;;;;;;;13.33;9.50;;;;;;;12.46;53.15;100851.72;6945370;28;20207;-83
2021/12/17 09:49:28;;;;;;;8.53;7.43;;;;;;;12.40;53.10;100839.69;6963172;28;20205;-86
2021/12/17 09:52:52;;;;;;;9.00;7.70;;;;;;;12.80;52.18;100833.47;6946408;28;20234;-81
2021/12/17 09:56:16;;;;;;;8.93;7.43;;;;;;;12.66;52.14;100836.81;6942189;28;20199;-84
2021/12/17 09:59:38;;;;;;;8.03;7.07;;;;;;;12.58;49.61;100839.53;6946673;28;20730;-85
2021/12/17 10:02:59;;;;;;;9.60;7.13;;;;;;;12.46;49.57;100821.94;6948122;28;20233;-85
2021/12/17 10:06:22;;;;;;;9.73;7.63;;;;;;;12.82;49.07;100842.25;6948311;28;20203;-83
2021/12/17 10:09:46;;;;;;;8.23;6.47;;;;;;;12.23;49.79;100837.97;6946528;28;20218;-85
2021/12/17 10:13:15;;;;;;;6.77;6.07;;;;;;;11.83;50.51;100839.72;6946938;28;20231;-84
2021/12/17 10:16:40;;;;;;;7.30;5.73;;;;;;;12.55;48.64;100829.91;6942397;28;20210;-83
2021/12/17 10:20:03;;;;;;;5.97;5.37;;;;;;;12.28;49.54;100827.50;6945158;28;20222;-84
2021/12/17 10:23:28;;;;;;;5.97;5.37;;;;;;;11.64;49.73;100783.25;6936465;28;20233;-85
2021/12/17 10:26:49;;;;;;;6.37;5.77;;;;;;;12.81;48.25;100814.31;6945755;28;20199;-84
2021/12/17 10:30:16;;;;;;;6.53;5.50;;;;;;;12.97;47.91;100817.03;6945959;28;20263;-85
2021/12/17 10:33:39;;;;;;;5.57;5.07;;;;;;;13.31;46.33;100823.06;6944522;28;20227;-85
2021/12/17 10:37:01;;;;;;;5.53;4.93;;;;;;;12.52;47.74;100851.03;6945600;28;20203;-83
2021/12/17 10:40:28;;;;;;;5.90;5.30;;;;;;;13.66;44.54;100829.88;6945052;28;20256;-83
2021/12/17 10:43:55;;;;;;;5.10;4.70;;;;;;;13.68;44.64;100828.69;6943910;28;20752;-83
2021/12/17 10:47:32;;;;;;;5.63;5.13;;;;;;;13.48;45.29;100807.59;6943927;28;20552;-85
2021/12/17 10:50:56;;;;;;;5.40;4.73;;;;;;;13.00;46.21;100814.00;6944590;28;20268;-84
2021/12/17 10:54:19;;;;;;;7.30;5.97;;;;;;;13.34;45.96;100813.75;6955080;28;20218;-84
2021/12/17 10:57:42;;;;;;;9.73;6.57;;;;;;;13.48;46.39;100815.72;6973721;28;20202;-85
2021/12/17 11:01:07;;;;;;;8.10;7.30;;;;;;;13.72;45.70;100812.91;6969390;28;20202;-82
2021/12/17 11:04:31;;;;;;;7.33;6.57;;;;;;;13.42;47.69;100814.56;6942365;28;20233;-84
2021/12/17 11:07:53;;;;;;;7.23;6.50;;;;;;;13.89;45.54;100806.38;6949274;28;20731;-83
2021/12/17 11:11:15;;;;;;;6.73;6.13;;;;;;;14.05;44.80;100815.25;6957825;28;20194;-82
2021/12/17 11:14:36;;;;;;;7.30;6.53;;;;;;;13.87;47.03;100808.44;6958561;28;20264;-82
2021/12/17 11:18:00;;;;;;;6.63;5.90;;;;;;;13.12;46.49;100785.53;6960150;28;20195;-83
2021/12/17 11:21:23;;;;;;;6.20;5.57;;;;;;;13.65;45.67;100801.94;6943059;28;20276;-86
2021/12/17 11:24:45;;;;;;;6.70;5.73;;;;;;;14.48;44.15;100798.41;6943863;28;20444;-85
2021/12/17 11:28:08;;;;;;;6.27;5.50;;;;;;;14.61;43.68;100801.34;6945532;28;20214;-86
2021/12/17 11:31:31;;;;;;;5.70;5.13;;;;;;;14.93;43.42;100801.03;6944483;28;20672;-83
2021/12/17 11:34:54;;;;;;;5.63;4.97;;;;;;;15.31;42.27;100799.97;6941408;28;20239;-84
2021/12/17 11:38:21;;;;;;;6.33;5.23;;;;;;;15.16;42.52;100792.84;6943178;28;20264;-85
2021/12/17 11:41:51;;;;;;;5.40;4.90;;;;;;;15.15;42.45;100802.84;6942994;28;20214;-83
2021/12/17 11:45:25;;;;;;;5.70;5.17;;;;;;;14.07;44.15;100772.56;6943920;28;20287;-85
2021/12/17 11:48:51;;;;;;;6.10;5.50;;;;;;;13.68;45.25;100800.75;6943906;28;20563;-81
2021/12/17 11:52:14;;;;;;;6.00;5.40;;;;;;;13.53;45.99;100781.66;6941982;28;20199;-81
2021/12/17 11:55:38;;;;;;;6.80;6.03;;;;;;;13.82;44.92;100779.16;6945254;28;20699;-80
2021/12/17 11:58:59;;;;;;;7.20;5.57;;;;;;;13.87;44.87;100752.31;6943252;28;20210;-80
2021/12/17 12:02:23;;;;;;;5.50;5.00;;;;;;;14.38;44.63;100721.78;6945435;28;20207;-82
2021/12/17 12:05:47;;;;;;;6.77;5.47;;;;;;;14.30;44.92;100753.59;6944467;28;20229;-81
2021/12/17 12:09:09;;;;;;;5.20;4.70;;;;;;;14.41;44.20;100701.59;6945000;28;20199;-80
2021/12/17 12:12:58;;;;;;;6.23;5.40;;;;;;;14.84;43.70;100776.84;6960365;28;20206;-82
2021/12/17 12:16:22;;;;;;;5.60;5.10;;;;;;;14.58;45.03;100784.56;6922088;28;20286;-81
2021/12/17 12:19:50;;;;;;;5.20;4.70;;;;;;;14.03;45.70;100779.34;6932328;28;20202;-81
2021/12/17 12:23:18;;;;;;;6.13;5.07;;;;;;;13.82;46.59;100770.16;6956690;28;20251;-81
2021/12/17 12:26:49;;;;;;;6.33;5.43;;;;;;;14.29;45.91;100768.19;6949875;28;20207;-81
2021/12/17 12:30:14;;;;;;;5.17;4.67;;;;;;;14.16;45.39;100672.97;6949896;28;20211;-82
2021/12/17 12:33:36;;;;;;;6.20;5.30;;;;;;;14.18;45.80;100706.16;6948720;28;20239;-83
2021/12/17 12:37:00;;;;;;;6.07;5.47;;;;;;;14.32;46.00;100749.66;6950094;28;20584;-81
2021/12/17 12:40:22;;;;;;;5.87;4.93;;;;;;;14.55;46.78;100736.91;6951930;28;20248;-83
2021/12/17 12:43:51;;;;;;;6.20;5.23;;;;;;;14.41;46.64;100743.16;6960080;28;20258;-82
2021/12/17 12:47:16;;;;;;;5.83;5.23;;;;;;;14.17;46.74;100747.91;6954187;28;20209;-81
2021/12/17 12:50:38;;;;;;;5.90;5.17;;;;;;;14.76;45.33;100720.72;6949017;28;20227;-83
2021/12/17 12:54:07;;;;;;;6.20;5.13;;;;;;;15.23;45.04;100736.69;6948009;28;20227;-80
2021/12/17 12:57:31;;;;;;;5.17;4.50;;;;;;;14.50;45.80;100712.19;6948442;28;20206;-81
2021/12/17 13:00:57;;;;;;;5.57;4.37;;;;;;;14.69;45.09;100724.41;6949993;28;20365;-80
2021/12/17 13:04:20;;;;;;;4.73;4.33;;;;;;;15.16;44.39;100719.47;6946216;28;20236;-80
2021/12/17 13:07:44;;;;;;;4.70;4.30;;;;;;;13.98;47.55;100742.94;6946400;28;20214;-80
2021/12/17 13:11:06;;;;;;;5.80;5.20;;;;;;;14.40;45.85;100748.75;6948920;28;20207;-81
2021/12/17 13:14:28;;;;;;;4.87;4.40;;;;;;;15.13;44.76;100753.28;6946711;28;20223;-80
2021/12/17 13:21:46;;;;;;;4.70;4.20;;;;;;;13.53;47.63;100737.44;6962154;28;20301;-81
2021/12/17 13:25:08;;;;;;;4.57;4.17;;;;;;;13.47;46.88;100690.25;6937942;28;20683;-81
2021/12/17 13:28:46;;;;;;;5.13;4.63;;;;;;;14.07;46.82;100742.72;6945682;28;20210;-82
2021/12/17 13:32:09;;;;;;;4.53;4.13;;;;;;;14.55;45.63;100728.78;6946619;28;20293;-80
2021/12/17 13:35:38;;;;;;;4.80;4.40;;;;;;;14.00;45.98;100700.22;6944832;28;20222;-82
2021/12/17 13:39:02;;;;;;;4.63;4.23;;;;;;;14.19;46.93;100735.88;6954903;28;20227;-80
2021/12/17 13:42:26;;;;;;;5.97;4.10;;;;;;;14.30;45.58;100729.16;6971234;28;20202;-82
2021/12/17 13:45:49;;;;;;;4.80;4.40;;;;;;;13.91;46.52;100742.81;6957195;28;20254;-82
2021/12/17 13:49:11;;;;;;;3.93;3.60;;;;;;;13.56;47.59;100745.22;6950535;28;20213;-80
2021/12/17 13:52:36;;;;;;;4.50;4.10;;;;;;;13.78;47.52;100728.16;6948548;28;20199;-82
2021/12/17 13:55:59;;;;;;;6.50;4.47;;;;;;;13.97;47.14;100731.25;6948773;28;20231;-81
2021/12/17 13:59:28;;;;;;;5.10;4.60;;;;;;;13.86;47.28;100731.66;6946241;28;20241;-82
2021/12/17 14:02:51;;;;;;;6.00;4.63;;;;;;;14.15;47.00;100749.94;6940166;28;20209;-83
2021/12/17 14:06:21;;;;;;;4.97;4.47;;;;;;;14.05;47.47;100747.44;6945530;28;20238;-83
2021/12/17 14:09:42;;;;;;;4.93;4.33;;;;;;;13.98;47.61;100756.50;6945942;28;20219;-83
2021/12/17 14:13:15;;;;;;;6.03;5.40;;;;;;;13.06;49.58;100759.16;6943458;28;20576;-82
2021/12/17 14:16:39;;;;;;;5.80;5.30;;;;;;;13.17;49.55;100752.50;6948706;28;20219;-83
2021/12/17 14:20:11;;;;;;;6.40;5.00;;;;;;;12.84;49.95;100770.66;6945964;28;20207;-82
2021/12/17 14:23:38;;;;;;;6.13;5.50;;;;;;;12.79;50.27;100780.31;6963573;28;20236;-84
2021/12/17 14:27:00;;;;;;;6.30;5.70;;;;;;;11.83;53.04;100789.22;6957712;28;20195;-83
2021/12/17 14:30:28;;;;;;;6.67;6.00;;;;;;;11.42;54.10;100800.00;6944058;28;20207;-83
2021/12/17 14:33:51;;;;;;;6.83;6.13;;;;;;;11.59;54.42;100781.06;6970802;28;20225;-83
2021/12/17 14:37:13;;;;;;;7.80;7.00;;;;;;;12.02;52.37;100786.22;6946237;28;20199;-82
2021/12/17 14:40:41;;;;;;;8.23;7.43;;;;;;;12.17;52.27;100808.88;6941090;28;20296;-80
2021/12/17 14:44:18;;;;;;;9.03;8.10;;;;;;;11.91;52.83;100797.34;6958397;28;20226;-83
2021/12/17 14:47:52;;;;;;;9.10;7.43;;;;;;;12.17;52.57;100805.34;6929779;28;20203;-81
2021/12/17 15:02:39;;;;;;;9.07;8.07;;;;;;;11.14;54.97;100817.41;6915755;28;20210;-86
2021/12/17 15:06:02;;;;;;;9.73;8.10;;;;;;;11.27;54.58;100815.16;6927908;28;20287;-85
2021/12/17 15:09:24;;;;;;;9.37;8.00;;;;;;;11.53;53.87;100816.78;6945776;28;20214;-84
2021/12/17 15:12:45;;;;;;;10.27;7.97;;;;;;;11.65;52.99;100782.25;6943878;28;20222;-83
2021/12/17 15:16:07;;;;;;;9.20;8.30;;;;;;;11.58;53.47;100784.75;6940893;28;20217;-82
2021/12/17 15:19:29;;;;;;;10.87;8.60;;;;;;;12.13;52.53;100814.78;6943887;28;20199;-83
2021/12/17 15:22:53;;;;;;;9.83;8.13;;;;;;;11.51;53.25;100815.25;6951379;28;20226;-86
2021/12/17 15:26:14;;;;;;;11.83;9.67;;;;;;;11.39;53.79;100811.16;6959667;28;20604;-86
2021/12/17 15:29:36;;;;;;;10.83;8.57;;;;;;;11.93;52.90;100818.81;6962798;28;20393;-85
2021/12/17 15:33:00;;;;;;;10.60;9.50;;;;;;;11.45;53.72;100819.44;6961612;28;20702;-85
2021/12/17 15:36:21;;;;;;;11.30;9.70;;;;;;;11.78;53.09;100825.84;6960729;28;20195;-85
2021/12/17 15:39:45;;;;;;;10.17;9.07;;;;;;;11.83;52.73;100829.78;6949498;28;20575;-85
2021/12/17 15:43:06;;;;;;;10.80;9.40;;;;;;;11.99;52.20;100816.28;6948172;28;20230;-85
2021/12/17 15:46:28;;;;;;;10.63;9.53;;;;;;;11.22;53.74;100814.78;6941403;28;20229;-83
2021/12/17 15:49:51;;;;;;;11.03;9.93;;;;;;;11.35;53.55;100807.94;6948395;28;20233;-85
2021/12/17 15:53:12;;;;;;;12.20;10.23;;;;;;;11.31;53.43;100801.16;6949510;28;20310;-82
2021/12/17 15:56:36;;;;;;;11.60;9.33;;;;;;;11.30;54.14;100828.31;6951042;28;20292;-83
2021/12/17 16:00:29;;;;;;;14.70;10.03;;;;;;;11.12;53.69;100797.84;6958383;28;20227;-84
2021/12/17 16:03:51;;;;;;;11.70;9.63;;;;;;;9.88;57.64;100796.31;6957288;28;20233;-86
2021/12/17 16:07:13;;;;;;;11.13;9.30;;;;;;;10.82;55.69;100828.00;6956017;28;20216;-85
2021/12/17 16:18:38;;;;;;;12.40;10.07;;;;;;;11.34;54.17;100825.13;6959120;28;20737;-85
2021/12/17 16:22:00;;;;;;;14.27;9.60;;;;;;;11.78;52.52;100807.78;6957044;28;20220;-84
2021/12/17 16:25:22;;;;;;;12.20;9.80;;;;;;;11.89;52.25;100809.34;6927220;28;20232;-84
2021/12/17 16:37:27;;;;;;;11.33;9.90;;;;;;;11.96;51.49;100795.00;6759963;29;20206;-85
2021/12/17 16:41:16;;;;;;;12.77;10.57;;;;;;;11.58;52.60;100794.69;6874711;28;20251;-87
2021/12/17 16:44:46;;;;;;;12.50;10.63;;;;;;;11.61;52.66;100797.06;6922511;22;20606;-82
2021/12/17 16:48:09;;;;;;;12.43;10.30;;;;;;;11.68;52.63;100792.72;6958650;28;20208;-82
2021/12/17 16:51:47;;;;;;;13.47;11.37;;;;;;;11.04;52.00;100673.63;6967237;28;20216;-81
2021/12/17 16:55:14;;;;;;;12.60;10.50;;;;;;;11.86;52.00;100818.63;6956741;28;20214;-82
2021/12/17 16:58:35;;;;;;;13.80;11.13;;;;;;;11.40;52.24;100823.66;6962772;28;20203;-82
2021/12/17 17:01:57;;;;;;;14.13;11.97;;;;;;;10.62;54.24;100786.06;6946253;28;20264;-82
2021/12/17 17:05:21;;;;;;;16.43;13.03;;;;;;;10.98;53.72;100801.13;6949547;28;20759;-82
2021/12/17 17:08:44;;;;;;;16.20;11.47;;;;;;;10.81;53.67;100785.84;6952919;28;20209;-82
2021/12/17 17:12:09;;;;;;;15.33;12.30;;;;;;;11.08;53.55;100818.91;6954074;28;20210;-82
2021/12/17 17:15:33;;;;;;;15.00;12.93;;;;;;;10.81;53.05;100788.53;6949822;28;20598;-82
2021/12/17 17:18:55;;;;;;;14.17;11.93;;;;;;;10.80;53.14;100820.06;6948421;28;20214;-82
2021/12/17 17:22:18;;;;;;;15.20;12.03;;;;;;;9.83;54.24;100766.28;6950943;28;20284;-82
2021/12/17 17:25:40;;;;;;;14.33;11.40;;;;;;;10.25;54.10;100804.25;6951057;28;20226;-82
2021/12/17 17:29:03;;;;;;;15.90;13.20;;;;;;;10.21;54.23;100833.38;6951940;28;20697;-82
2021/12/17 17:32:25;;;;;;;17.73;13.87;;;;;;;9.46;56.46;100853.53;6951049;28;20203;-81
2021/12/17 17:35:47;;;;;;;16.53;12.43;;;;;;;10.26;55.50;100844.56;6949919;28;20221;-81
2021/12/17 17:39:12;;;;;;;16.97;12.97;;;;;;;10.32;54.96;100821.50;6950477;28;20248;-82
2021/12/17 17:42:33;;;;;;;14.87;12.37;;;;;;;10.51;54.71;100818.66;6950581;28;20236;-81
2021/12/17 17:45:55;;;;;;;17.43;11.57;;;;;;;10.71;53.72;100836.34;6949841;28;20657;-81
2021/12/17 17:49:17;;;;;;;16.93;11.60;;;;;;;10.27;53.60;100799.59;6950692;28;20210;-82
2021/12/17 17:52:39;;;;;;;22.40;12.87;;;;;;;10.06;54.84;100836.75;6949103;28;20577;-82
2021/12/17 17:56:02;;;;;;;17.43;13.17;;;;;;;10.25;54.70;100832.09;6941857;28;20737;-82
2021/12/17 17:59:24;;;;;;;24.67;16.37;;;;;;;9.49;56.81;100851.38;6950800;28;20205;-81
2021/12/17 18:02:46;;;;;;;17.80;14.10;;;;;;;9.68;56.79;100836.97;6950976;28;20230;-82
2021/12/17 18:06:07;;;;;;;19.10;13.37;;;;;;;9.96;55.95;100806.28;6948918;28;20235;-82
2021/12/17 18:09:29;;;;;;;17.17;13.73;;;;;;;10.35;55.81;100824.78;6950124;28;20255;-81
2021/12/17 18:12:54;;;;;;;19.43;13.67;;;;;;;10.58;53.98;100841.31;6950456;28;20210;-81
2021/12/17 18:16:15;;;;;;;14.57;10.67;;;;;;;9.64;54.59;100754.78;6951048;28;20229;-82
2021/12/17 18:19:38;;;;;;;17.03;12.40;;;;;;;10.16;54.68;100845.63;6941773;28;20209;-81
2021/12/17 18:23:02;;;;;;;15.60;12.57;;;;;;;10.35;54.86;100865.22;6934634;28;20662;-82
2021/12/17 18:26:24;;;;;;;16.10;11.67;;;;;;;10.45;54.74;100892.09;6939951;28;20287;-82
2021/12/17 18:29:47;;;;;;;17.47;12.57;;;;;;;10.04;56.00;100890.81;6952290;28;20206;-81
2021/12/17 18:33:09;;;;;;;16.97;11.73;;;;;;;10.18;55.69;100847.19;6952166;28;20291;-81
2021/12/17 18:36:30;;;;;;;16.30;12.30;;;;;;;10.36;55.79;100880.38;6951329;28;20213;-81
2021/12/17 18:39:52;;;;;;;16.60;10.87;;;;;;;10.46;54.74;100873.06;6952792;28;20215;-82
2021/12/17 18:46:54;;;;;;;16.67;12.17;;;;;;;10.31;55.64;100882.69;6952032;28;20218;-81
2021/12/17 18:50:16;;;;;;;13.80;11.37;;;;;;;10.47;55.65;100887.41;6952067;28;20209;-81
2021/12/17 18:53:38;;;;;;;17.03;13.97;;;;;;;10.09;55.54;100885.00;6952540;28;20234;-81
2021/12/17 18:56:59;;;;;;;16.77;13.63;;;;;;;9.99;55.21;100839.16;6952840;28;20574;-82
2021/12/17 19:00:21;;;;;;;21.13;14.13;;;;;;;10.38;54.63;100872.13;6953280;28;20700;-80
2021/12/17 19:03:44;;;;;;;16.90;13.13;;;;;;;10.30;55.21;100855.88;6954188;28;20234;-81
2021/12/17 19:07:06;;;;;;;16.40;13.50;;;;;;;10.41;54.78;100837.63;6953139;28;20220;-81
2021/12/17 19:10:27;;;;;;;18.87;14.53;;;;;;;10.29;54.86;100868.53;6955124;28;20198;-81
2021/12/17 19:13:49;;;;;;;22.20;16.10;;;;;;;10.71;54.66;100868.72;6958153;28;20229;-81
2021/12/17 19:17:11;;;;;;;19.70;14.23;;;;;;;10.41;54.15;100867.28;6949631;28;20225;-80
2021/12/17 19:20:42;;;;;;;17.37;14.30;;;;;;;10.44;54.37;100845.41;6952335;28;20218;-82
2021/12/17 19:24:05;;;;;;;17.67;14.03;;;;;;;10.81;54.19;100866.78;6950633;28;20232;-81
2021/12/17 19:27:27;;;;;;;17.40;14.20;;;;;;;10.75;53.94;100872.81;6951799;28;20214;-82
2021/12/17 19:30:49;;;;;;;15.73;13.60;;;;;;;10.47;53.84;100857.72;6950474;28;20205;-82
2021/12/17 19:34:11;;;;;;;17.47;14.07;;;;;;;10.63;54.16;100882.16;6951083;28;20226;-81
2021/12/17 19:37:34;;;;;;;19.50;13.63;;;;;;;10.37;53.78;100882.06;6951654;28;20236;-81
2021/12/17 19:40:55;;;;;;;21.70;14.93;;;;;;;10.17;54.69;100885.91;6952930;28;20214;-81
2021/12/17 19:44:17;;;;;;;18.73;15.10;;;;;;;10.26;54.78;100876.91;6955371;28;20233;-81
2021/12/17 19:47:43;;;;;;;15.83;13.50;;;;;;;10.34;54.31;100885.06;6958622;28;20300;-81
2021/12/17 19:51:07;;;;;;;17.23;13.87;;;;;;;9.45;56.38;100886.84;6949434;28;20280;-82
2021/12/17 19:54:31;;;;;;;17.80;14.27;;;;;;;9.62;56.43;100883.38;6947603;28;20598;-82
2021/12/17 19:57:54;;;;;;;18.23;13.97;;;;;;;9.60;55.93;100885.34;6947267;28;20209;-82
2021/12/17 20:01:17;;;;;;;17.30;13.80;;;;;;;8.98;57.39;100887.81;6947478;28;20234;-82
2021/12/17 20:04:41;;;;;;;18.90;14.23;;;;;;;9.45;55.71;100865.31;6948788;28;20230;-82
2021/12/17 20:08:03;;;;;;;18.87;14.17;;;;;;;9.72;54.81;100860.78;6949713;28;20205;-82
2021/12/17 20:11:26;;;;;;;18.73;14.67;;;;;;;9.15;57.08;100885.22;6949914;28;20208;-81
2021/12/17 20:14:48;;;;;;;16.90;13.67;;;;;;;9.43;56.52;100886.97;6949379;28;20237;-82
2021/12/17 20:18:14;;;;;;;18.10;13.80;;;;;;;9.30;56.26;100882.91;6950088;28;20220;-81
2021/12/17 20:21:37;;;;;;;18.70;14.90;;;;;;;8.84;57.39;100866.72;6950674;28;20233;-82
2021/12/17 20:24:58;;;;;;;17.60;14.80;;;;;;;9.19;57.30;100885.78;6949906;28;20331;-82
2021/12/17 20:28:22;;;;;;;18.97;13.90;;;;;;;8.83;57.21;100843.53;6947259;28;20264;-82
2021/12/17 20:31:44;;;;;;;20.17;15.43;;;;;;;8.90;57.72;100879.59;6924141;28;20210;-82
2021/12/17 20:35:08;;;;;;;18.90;14.90;;;;;;;8.97;58.09;100882.56;6923381;28;20595;-81
2021/12/17 20:38:30;;;;;;;20.63;14.43;;;;;;;8.71;58.06;100876.13;6924625;28;20220;-82
2021/12/17 20:41:54;;;;;;;19.07;14.93;;;;;;;8.63;58.28;100871.44;6940018;28;20201;-82
2021/12/17 20:45:21;;;;;;;19.57;15.00;;;;;;;8.32;59.06;100887.84;6950780;28;20274;-80
2021/12/17 20:48:44;;;;;;;20.37;15.03;;;;;;;8.27;59.29;100872.16;6952738;28;20205;-81
2021/12/17 20:52:06;;;;;;;20.43;15.57;;;;;;;7.53;61.41;100875.34;6951397;28;20583;-82
2021/12/17 20:55:28;;;;;;;19.27;14.40;;;;;;;8.15;59.79;100878.63;6950446;28;20219;-82
2021/12/17 20:58:49;;;;;;;19.20;14.40;;;;;;;7.84;60.06;100860.88;6952393;28;20216;-82
2021/12/17 21:02:12;;;;;;;19.20;14.80;;;;;;;7.77;59.55;100800.66;6952535;28;20205;-82
2021/12/17 21:05:35;;;;;;;20.33;14.80;;;;;;;7.76;59.40;100866.09;6950359;28;20232;-82
2021/12/17 21:08:57;;;;;;;19.97;15.47;;;;;;;8.07;59.43;100885.69;6951757;28;20686;-81
2021/12/17 21:12:19;;;;;;;22.23;15.63;;;;;;;7.70;59.52;100821.00;6952136;28;20210;-82
2021/12/17 21:15:43;;;;;;;19.03;14.73;;;;;;;8.56;57.69;100856.00;6950240;28;20576;-81
2021/12/17 21:19:07;;;;;;;21.87;16.10;;;;;;;9.08;56.37;100870.66;6939571;28;20202;-82
2021/12/17 21:22:29;;;;;;;23.57;15.43;;;;;;;9.31;56.04;100893.53;6945712;28;20260;-82
2021/12/17 21:25:52;;;;;;;20.60;16.00;;;;;;;9.60;54.93;100883.50;6949075;28;20249;-82
2021/12/17 21:29:16;;;;;;;21.83;15.83;;;;;;;9.58;54.99;100869.31;6951005;28;20226;-82
2021/12/17 21:32:38;;;;;;;20.80;15.33;;;;;;;9.69;53.97;100866.44;6950452;28;20249;-82
2021/12/17 21:36:04;;;;;;;18.67;14.87;;;;;;;9.69;54.59;100871.81;6949593;28;20222;-82
2021/12/17 21:39:26;;;;;;;20.90;15.30;;;;;;;9.30;54.23;100838.00;6950418;28;20245;-82
2021/12/17 21:42:48;;;;;;;22.23;15.40;;;;;;;8.66;56.42;100887.28;6950609;28;20207;-82
2021/12/17 21:46:11;;;;;;;19.80;14.70;;;;;;;8.33;57.27;100886.84;6949536;28;20237;-82
2021/12/17 21:49:33;;;;;;;21.80;15.63;;;;;;;8.29;57.61;100888.97;6950576;28;20212;-82
2021/12/17 21:52:58;;;;;;;17.97;14.43;;;;;;;8.82;55.74;100865.19;6950665;28;20270;-82
2021/12/17 21:56:19;;;;;;;19.33;15.33;;;;;;;8.79;55.89;100876.25;6950914;28;20233;-82
2021/12/17 21:59:41;;;;;;;22.67;16.50;;;;;;;8.63;56.11;100884.03;6951242;28;20696;-82
